Trade Lake, Wisconsin
Current Conditions -  °F | °C
As of 11:15 PM on Sunday 21 Dec 2014 (Local Time) from KRZN Reporting Station
Moderate Rain Moderate Rain  
Wind Chill: 29°   Ceiling: 1000
Heat Index: 35°   Visibility: 4mi
Dew Point: 35°   Wind: 8mph
Humidity: 98%   Direction: 160°SSE
Pressure: 29.75"   Gusts: NA
Location:  45.6678°N, 92.363°W
Report Text: KRZN 220515Z AUTO 16007KT 4SM RA OVC010 02/02 A2975 RMK AO2 P0001 T00180015
Loading
Personal Weather Stations






























Interactive Weather Map New forecast layout! Learn more

10-Day Weather Forecast

Advertisements
Track Severe Weather on mobile